sensor_id;sensor_type;location;lat;lon;timestamp;temperature;humidity
23683;DHT22;24897;53.514;10.482;2023-04-01T00:01:33;10.90;99.90
23683;DHT22;24897;53.514;10.482;2023-04-01T00:04:17;10.90;99.90
23683;DHT22;24897;53.514;10.482;2023-04-01T00:07:01;10.90;99.90
23683;DHT22;24897;53.514;10.482;2023-04-01T00:09:46;10.90;99.90
23683;DHT22;24897;53.514;10.482;2023-04-01T00:12:30;10.90;99.90
23683;DHT22;24897;53.514;10.482;2023-04-01T00:15:14;10.90;99.90
23683;DHT22;24897;53.514;10.482;2023-04-01T00:17:59;10.90;99.90
23683;DHT22;24897;53.514;10.482;2023-04-01T00:20:46;10.80;99.90
23683;DHT22;24897;53.514;10.482;2023-04-01T00:23:31;10.80;99.90
23683;DHT22;24897;53.514;10.482;2023-04-01T00:26:16;10.90;99.90
23683;DHT22;24897;53.514;10.482;2023-04-01T00:29:03;10.80;99.90
23683;DHT22;24897;53.514;10.482;2023-04-01T00:31:47;10.80;99.90
23683;DHT22;24897;53.514;10.482;2023-04-01T00:34:32;10.70;99.90
23683;DHT22;24897;53.514;10.482;2023-04-01T00:37:16;10.80;99.90
23683;DHT22;24897;53.514;10.482;2023-04-01T00:40:01;10.80;99.90
23683;DHT22;24897;53.514;10.482;2023-04-01T00:42:46;10.80;99.90
23683;DHT22;24897;53.514;10.482;2023-04-01T00:45:34;10.80;99.90
23683;DHT22;24897;53.514;10.482;2023-04-01T00:48:24;10.80;99.90
23683;DHT22;24897;53.514;10.482;2023-04-01T00:51:20;10.80;99.90
23683;DHT22;24897;53.514;10.482;2023-04-01T00:54:05;10.80;99.90
23683;DHT22;24897;53.514;10.482;2023-04-01T00:59:46;10.70;99.90
23683;DHT22;24897;53.514;10.482;2023-04-01T01:02:32;10.80;99.90
23683;DHT22;24897;53.514;10.482;2023-04-01T01:05:18;10.60;99.90
23683;DHT22;24897;53.514;10.482;2023-04-01T01:10:55;10.70;99.90
23683;DHT22;24897;53.514;10.482;2023-04-01T01:14:03;10.70;99.90
23683;DHT22;24897;53.514;10.482;2023-04-01T01:23:32;10.60;99.90
23683;DHT22;24897;53.514;10.482;2023-04-01T01:33:11;10.50;99.90
23683;DHT22;24897;53.514;10.482;2023-04-01T01:35:58;10.50;99.90
23683;DHT22;24897;53.514;10.482;2023-04-01T01:38:44;10.60;99.90
23683;DHT22;24897;53.514;10.482;2023-04-01T01:41:31;10.50;99.90
23683;DHT22;24897;53.514;10.482;2023-04-01T01:44:16;10.50;99.90
23683;DHT22;24897;53.514;10.482;2023-04-01T01:47:02;10.50;99.90
23683;DHT22;24897;53.514;10.482;2023-04-01T01:49:46;10.50;99.90
23683;DHT22;24897;53.514;10.482;2023-04-01T01:52:30;10.60;99.90
23683;DHT22;24897;53.514;10.482;2023-04-01T01:55:35;10.50;99.90
23683;DHT22;24897;53.514;10.482;2023-04-01T01:58:24;10.40;99.90
23683;DHT22;24897;53.514;10.482;2023-04-01T02:01:13;10.50;99.90
23683;DHT22;24897;53.514;10.482;2023-04-01T02:03:59;10.40;99.90
23683;DHT22;24897;53.514;10.482;2023-04-01T02:06:53;10.40;99.90
23683;DHT22;24897;53.514;10.482;2023-04-01T02:09:40;10.40;99.90
23683;DHT22;24897;53.514;10.482;2023-04-01T02:12:24;10.30;99.90
23683;DHT22;24897;53.514;10.482;2023-04-01T02:15:11;10.40;99.90
23683;DHT22;24897;53.514;10.482;2023-04-01T02:17:57;10.40;99.90
23683;DHT22;24897;53.514;10.482;2023-04-01T02:20:43;10.40;99.90
23683;DHT22;24897;53.514;10.482;2023-04-01T02:23:29;10.40;99.90
23683;DHT22;24897;53.514;10.482;2023-04-01T02:26:14;10.40;99.90
23683;DHT22;24897;53.514;10.482;2023-04-01T02:28:59;10.40;99.90
23683;DHT22;24897;53.514;10.482;2023-04-01T02:31:45;10.40;99.90
23683;DHT22;24897;53.514;10.482;2023-04-01T02:34:30;10.30;99.90
23683;DHT22;24897;53.514;10.482;2023-04-01T02:37:14;10.30;99.90
23683;DHT22;24897;53.514;10.482;2023-04-01T02:40:01;10.30;99.90
23683;DHT22;24897;53.514;10.482;2023-04-01T02:42:45;10.40;99.90
23683;DHT22;24897;53.514;10.482;2023-04-01T02:45:29;10.40;99.90
23683;DHT22;24897;53.514;10.482;2023-04-01T02:48:14;10.40;99.90
23683;DHT22;24897;53.514;10.482;2023-04-01T02:50:59;10.40;99.90
23683;DHT22;24897;53.514;10.482;2023-04-01T02:53:43;10.40;99.90
23683;DHT22;24897;53.514;10.482;2023-04-01T02:56:27;10.40;99.90
23683;DHT22;24897;53.514;10.482;2023-04-01T02:59:11;10.30;99.90
23683;DHT22;24897;53.514;10.482;2023-04-01T03:01:55;10.30;99.90
23683;DHT22;24897;53.514;10.482;2023-04-01T03:04:40;10.40;99.90
23683;DHT22;24897;53.514;10.482;2023-04-01T03:07:24;10.40;99.90
23683;DHT22;24897;53.514;10.482;2023-04-01T03:10:09;10.40;99.90
23683;DHT22;24897;53.514;10.482;2023-04-01T03:12:54;10.30;99.90
23683;DHT22;24897;53.514;10.482;2023-04-01T03:15:38;10.30;99.90
23683;DHT22;24897;53.514;10.482;2023-04-01T03:18:22;10.30;99.90
23683;DHT22;24897;53.514;10.482;2023-04-01T03:21:21;10.30;99.90
23683;DHT22;24897;53.514;10.482;2023-04-01T03:24:06;10.40;99.90
23683;DHT22;24897;53.514;10.482;2023-04-01T03:26:51;10.40;99.90
23683;DHT22;24897;53.514;10.482;2023-04-01T03:29:35;10.40;99.90
23683;DHT22;24897;53.514;10.482;2023-04-01T03:32:19;10.40;99.90
23683;DHT22;24897;53.514;10.482;2023-04-01T03:35:04;10.30;99.90
23683;DHT22;24897;53.514;10.482;2023-04-01T03:37:53;10.30;99.90
23683;DHT22;24897;53.514;10.482;2023-04-01T03:40:37;10.40;99.90
23683;DHT22;24897;53.514;10.482;2023-04-01T03:43:22;10.50;99.90
23683;DHT22;24897;53.514;10.482;2023-04-01T03:46:06;10.40;99.90
23683;DHT22;24897;53.514;10.482;2023-04-01T03:48:51;10.40;99.90
23683;DHT22;24897;53.514;10.482;2023-04-01T03:51:35;10.30;99.90
23683;DHT22;24897;53.514;10.482;2023-04-01T03:54:19;10.30;99.90
23683;DHT22;24897;53.514;10.482;2023-04-01T03:57:04;10.30;99.90
23683;DHT22;24897;53.514;10.482;2023-04-01T03:59:49;10.30;99.90
23683;DHT22;24897;53.514;10.482;2023-04-01T04:02:32;10.30;99.90
23683;DHT22;24897;53.514;10.482;2023-04-01T04:05:17;10.30;99.90
23683;DHT22;24897;53.514;10.482;2023-04-01T04:08:01;10.30;99.90
23683;DHT22;24897;53.514;10.482;2023-04-01T04:10:45;10.40;99.90
23683;DHT22;24897;53.514;10.482;2023-04-01T04:13:30;10.30;99.90
23683;DHT22;24897;53.514;10.482;2023-04-01T04:16:15;10.40;99.90
23683;DHT22;24897;53.514;10.482;2023-04-01T04:19:00;10.30;99.90
23683;DHT22;24897;53.514;10.482;2023-04-01T04:21:44;10.30;99.90
23683;DHT22;24897;53.514;10.482;2023-04-01T04:24:28;10.30;99.90
23683;DHT22;24897;53.514;10.482;2023-04-01T04:27:13;10.40;99.90
23683;DHT22;24897;53.514;10.482;2023-04-01T04:29:57;10.40;99.90
23683;DHT22;24897;53.514;10.482;2023-04-01T04:32:41;10.40;99.90
23683;DHT22;24897;53.514;10.482;2023-04-01T04:35:26;10.30;99.90
23683;DHT22;24897;53.514;10.482;2023-04-01T04:38:10;10.30;99.90
23683;DHT22;24897;53.514;10.482;2023-04-01T04:40:54;10.30;99.90
23683;DHT22;24897;53.514;10.482;2023-04-01T04:43:40;10.30;99.90
23683;DHT22;24897;53.514;10.482;2023-04-01T04:46:25;10.30;99.90
23683;DHT22;24897;53.514;10.482;2023-04-01T04:49:09;10.30;99.90
23683;DHT22;24897;53.514;10.482;2023-04-01T04:51:53;10.30;99.90
23683;DHT22;24897;53.514;10.482;2023-04-01T04:54:37;10.30;99.90
23683;DHT22;24897;53.514;10.482;2023-04-01T04:57:21;10.30;99.90
23683;DHT22;24897;53.514;10.482;2023-04-01T05:00:06;10.40;99.90
23683;DHT22;24897;53.514;10.482;2023-04-01T05:02:51;10.30;99.90
23683;DHT22;24897;53.514;10.482;2023-04-01T05:05:35;10.10;99.90
23683;DHT22;24897;53.514;10.482;2023-04-01T05:08:20;10.00;99.90
23683;DHT22;24897;53.514;10.482;2023-04-01T05:11:07;9.80;99.90
23683;DHT22;24897;53.514;10.482;2023-04-01T05:13:53;9.60;99.90
23683;DHT22;24897;53.514;10.482;2023-04-01T05:16:37;9.50;99.90
23683;DHT22;24897;53.514;10.482;2023-04-01T05:19:21;9.30;99.90
23683;DHT22;24897;53.514;10.482;2023-04-01T05:22:06;9.10;99.90
23683;DHT22;24897;53.514;10.482;2023-04-01T05:24:50;9.00;99.90
23683;DHT22;24897;53.514;10.482;2023-04-01T05:27:37;8.80;99.90
23683;DHT22;24897;53.514;10.482;2023-04-01T05:30:22;8.70;99.90
23683;DHT22;24897;53.514;10.482;2023-04-01T05:33:10;8.70;99.90
23683;DHT22;24897;53.514;10.482;2023-04-01T05:35:56;8.70;99.90
23683;DHT22;24897;53.514;10.482;2023-04-01T05:38:41;8.60;99.90
23683;DHT22;24897;53.514;10.482;2023-04-01T05:41:27;8.50;99.90
23683;DHT22;24897;53.514;10.482;2023-04-01T05:44:12;8.90;99.90
23683;DHT22;24897;53.514;10.482;2023-04-01T05:46:56;8.40;99.90
23683;DHT22;24897;53.514;10.482;2023-04-01T05:49:40;8.20;99.90
23683;DHT22;24897;53.514;10.482;2023-04-01T05:52:24;8.40;99.90
23683;DHT22;24897;53.514;10.482;2023-04-01T05:55:09;8.20;99.90
23683;DHT22;24897;53.514;10.482;2023-04-01T05:57:53;8.10;99.90
23683;DHT22;24897;53.514;10.482;2023-04-01T06:00:37;8.00;99.90
23683;DHT22;24897;53.514;10.482;2023-04-01T06:03:21;7.90;99.90
23683;DHT22;24897;53.514;10.482;2023-04-01T06:06:16;7.80;99.90
23683;DHT22;24897;53.514;10.482;2023-04-01T06:09:26;7.80;99.90
23683;DHT22;24897;53.514;10.482;2023-04-01T06:12:44;7.60;99.90
23683;DHT22;24897;53.514;10.482;2023-04-01T06:27:51;7.60;99.90
23683;DHT22;24897;53.514;10.482;2023-04-01T06:30:43;7.50;99.90
23683;DHT22;24897;53.514;10.482;2023-04-01T06:42:42;7.20;99.90
23683;DHT22;24897;53.514;10.482;2023-04-01T06:48:35;7.20;99.90
23683;DHT22;24897;53.514;10.482;2023-04-01T06:54:17;7.30;99.90
23683;DHT22;24897;53.514;10.482;2023-04-01T06:57:15;7.10;99.90
23683;DHT22;24897;53.514;10.482;2023-04-01T07:00:39;7.10;99.90
23683;DHT22;24897;53.514;10.482;2023-04-01T07:06:30;7.20;99.90
23683;DHT22;24897;53.514;10.482;2023-04-01T07:09:24;7.10;99.90
23683;DHT22;24897;53.514;10.482;2023-04-01T07:15:17;7.20;99.90
23683;DHT22;24897;53.514;10.482;2023-04-01T07:18:19;7.10;99.90
23683;DHT22;24897;53.514;10.482;2023-04-01T07:21:14;7.10;99.90
23683;DHT22;24897;53.514;10.482;2023-04-01T07:24:06;7.20;99.90
23683;DHT22;24897;53.514;10.482;2023-04-01T07:26:54;7.20;99.90
23683;DHT22;24897;53.514;10.482;2023-04-01T07:29:39;7.10;99.90
23683;DHT22;24897;53.514;10.482;2023-04-01T07:32:54;7.10;99.90
23683;DHT22;24897;53.514;10.482;2023-04-01T07:35:51;7.00;99.90
23683;DHT22;24897;53.514;10.482;2023-04-01T07:38:44;7.00;99.90
23683;DHT22;24897;53.514;10.482;2023-04-01T07:50:30;6.90;99.90
23683;DHT22;24897;53.514;10.482;2023-04-01T08:05:32;6.70;99.90
23683;DHT22;24897;53.514;10.482;2023-04-01T08:14:30;6.80;99.90
23683;DHT22;24897;53.514;10.482;2023-04-01T08:22:59;6.80;99.90
23683;DHT22;24897;53.514;10.482;2023-04-01T08:25:53;6.70;99.90
23683;DHT22;24897;53.514;10.482;2023-04-01T08:28:51;6.70;99.90
23683;DHT22;24897;53.514;10.482;2023-04-01T08:31:43;6.80;99.90
23683;DHT22;24897;53.514;10.482;2023-04-01T08:34:40;6.70;99.90
23683;DHT22;24897;53.514;10.482;2023-04-01T08:37:30;6.60;99.90
23683;DHT22;24897;53.514;10.482;2023-04-01T08:46:56;6.70;99.90
23683;DHT22;24897;53.514;10.482;2023-04-01T08:53:07;6.70;99.90
23683;DHT22;24897;53.514;10.482;2023-04-01T08:56:17;6.60;99.90
23683;DHT22;24897;53.514;10.482;2023-04-01T09:38:56;7.00;99.90
23683;DHT22;24897;53.514;10.482;2023-04-01T10:06:41;7.00;99.90
23683;DHT22;24897;53.514;10.482;2023-04-01T10:10:14;6.90;99.90
23683;DHT22;24897;53.514;10.482;2023-04-01T10:16:57;6.90;99.90
23683;DHT22;24897;53.514;10.482;2023-04-01T11:37:01;6.50;99.90
23683;DHT22;24897;53.514;10.482;2023-04-01T11:46:19;6.50;99.90
23683;DHT22;24897;53.514;10.482;2023-04-01T11:49:24;6.50;99.90
23683;DHT22;24897;53.514;10.482;2023-04-01T11:52:44;6.40;99.90
23683;DHT22;24897;53.514;10.482;2023-04-01T12:02:11;6.30;99.90
23683;DHT22;24897;53.514;10.482;2023-04-01T12:08:15;6.30;99.90
23683;DHT22;24897;53.514;10.482;2023-04-01T12:19:54;6.30;99.90
23683;DHT22;24897;53.514;10.482;2023-04-01T12:23:03;6.30;99.90
23683;DHT22;24897;53.514;10.482;2023-04-01T12:41:40;6.50;99.90
23683;DHT22;24897;53.514;10.482;2023-04-01T12:54:02;6.60;99.90
23683;DHT22;24897;53.514;10.482;2023-04-01T12:57:02;6.60;99.90
23683;DHT22;24897;53.514;10.482;2023-04-01T13:06:43;6.30;99.90
23683;DHT22;24897;53.514;10.482;2023-04-01T13:15:40;6.10;99.90
23683;DHT22;24897;53.514;10.482;2023-04-01T13:18:54;6.20;99.90
23683;DHT22;24897;53.514;10.482;2023-04-01T13:25:05;6.40;99.90
23683;DHT22;24897;53.514;10.482;2023-04-01T13:28:23;6.40;99.90
23683;DHT22;24897;53.514;10.482;2023-04-01T13:37:15;6.40;99.90
23683;DHT22;24897;53.514;10.482;2023-04-01T13:42:53;6.10;99.90
23683;DHT22;24897;53.514;10.482;2023-04-01T13:52:08;6.20;99.90
23683;DHT22;24897;53.514;10.482;2023-04-01T14:07:48;6.10;99.90
23683;DHT22;24897;53.514;10.482;2023-04-01T14:16:21;6.20;99.90
23683;DHT22;24897;53.514;10.482;2023-04-01T14:22:34;5.80;99.90
23683;DHT22;24897;53.514;10.482;2023-04-01T14:25:32;5.80;99.90
23683;DHT22;24897;53.514;10.482;2023-04-01T14:31:51;5.80;99.90
23683;DHT22;24897;53.514;10.482;2023-04-01T14:35:12;5.80;99.90
23683;DHT22;24897;53.514;10.482;2023-04-01T14:50:06;5.80;99.90
23683;DHT22;24897;53.514;10.482;2023-04-01T14:55:57;5.80;99.90
23683;DHT22;24897;53.514;10.482;2023-04-01T14:58:46;5.80;99.90
23683;DHT22;24897;53.514;10.482;2023-04-01T15:01:45;5.80;99.90
23683;DHT22;24897;53.514;10.482;2023-04-01T15:05:03;6.00;99.90
23683;DHT22;24897;53.514;10.482;2023-04-01T15:14:30;5.80;99.90
23683;DHT22;24897;53.514;10.482;2023-04-01T15:30:13;5.50;99.90
23683;DHT22;24897;53.514;10.482;2023-04-01T15:36:04;5.50;99.90
23683;DHT22;24897;53.514;10.482;2023-04-01T15:45:31;5.40;99.90
23683;DHT22;24897;53.514;10.482;2023-04-01T15:54:39;5.50;99.90
23683;DHT22;24897;53.514;10.482;2023-04-01T15:57:40;5.40;99.90
23683;DHT22;24897;53.514;10.482;2023-04-01T16:00:42;5.40;99.90
23683;DHT22;24897;53.514;10.482;2023-04-01T16:07:15;5.40;99.90
23683;DHT22;24897;53.514;10.482;2023-04-01T16:17:00;5.30;99.90
23683;DHT22;24897;53.514;10.482;2023-04-01T16:19:53;5.20;99.90
23683;DHT22;24897;53.514;10.482;2023-04-01T16:25:52;5.10;99.90
23683;DHT22;24897;53.514;10.482;2023-04-01T16:31:50;5.10;99.90
23683;DHT22;24897;53.514;10.482;2023-04-01T16:37:34;5.10;99.90
23683;DHT22;24897;53.514;10.482;2023-04-01T16:43:49;5.10;99.90
23683;DHT22;24897;53.514;10.482;2023-04-01T16:46:43;5.10;99.90
23683;DHT22;24897;53.514;10.482;2023-04-01T16:49:42;4.90;99.90
23683;DHT22;24897;53.514;10.482;2023-04-01T16:53:08;4.90;99.90
23683;DHT22;24897;53.514;10.482;2023-04-01T17:02:09;4.70;99.90
23683;DHT22;24897;53.514;10.482;2023-04-01T17:05:01;4.80;99.90
23683;DHT22;24897;53.514;10.482;2023-04-01T17:16:38;4.80;99.90
23683;DHT22;24897;53.514;10.482;2023-04-01T17:23:11;4.80;99.90
23683;DHT22;24897;53.514;10.482;2023-04-01T17:29:03;4.80;99.90
23683;DHT22;24897;53.514;10.482;2023-04-01T17:31:52;4.80;99.90
23683;DHT22;24897;53.514;10.482;2023-04-01T17:41:06;4.80;99.90
23683;DHT22;24897;53.514;10.482;2023-04-01T17:44:12;4.80;99.90
23683;DHT22;24897;53.514;10.482;2023-04-01T17:47:02;4.70;99.90
23683;DHT22;24897;53.514;10.482;2023-04-01T17:59:11;4.70;99.90
23683;DHT22;24897;53.514;10.482;2023-04-01T18:05:16;4.70;99.90
23683;DHT22;24897;53.514;10.482;2023-04-01T18:08:17;4.70;99.90
23683;DHT22;24897;53.514;10.482;2023-04-01T18:17:24;4.70;99.90
23683;DHT22;24897;53.514;10.482;2023-04-01T18:20:31;4.70;99.90
23683;DHT22;24897;53.514;10.482;2023-04-01T18:26:34;4.60;99.90
23683;DHT22;24897;53.514;10.482;2023-04-01T18:35:54;4.50;99.90
23683;DHT22;24897;53.514;10.482;2023-04-01T18:39:10;4.40;99.90
23683;DHT22;24897;53.514;10.482;2023-04-01T18:44:50;4.40;99.90
23683;DHT22;24897;53.514;10.482;2023-04-01T18:50:58;4.40;99.90
23683;DHT22;24897;53.514;10.482;2023-04-01T18:53:53;4.40;99.90
23683;DHT22;24897;53.514;10.482;2023-04-01T18:56:43;4.50;99.90
23683;DHT22;24897;53.514;10.482;2023-04-01T19:02:45;4.60;99.90
23683;DHT22;24897;53.514;10.482;2023-04-01T19:05:44;4.50;99.90
23683;DHT22;24897;53.514;10.482;2023-04-01T19:08:35;4.50;99.90
23683;DHT22;24897;53.514;10.482;2023-04-01T19:11:29;4.50;99.90
23683;DHT22;24897;53.514;10.482;2023-04-01T19:14:36;4.50;99.90
23683;DHT22;24897;53.514;10.482;2023-04-01T19:21:19;4.40;99.90
23683;DHT22;24897;53.514;10.482;2023-04-01T19:26:46;4.20;99.90
23683;DHT22;24897;53.514;10.482;2023-04-01T19:30:03;4.20;99.90
23683;DHT22;24897;53.514;10.482;2023-04-01T19:39:24;4.10;99.90
23683;DHT22;24897;53.514;10.482;2023-04-01T19:42:33;4.10;99.90
23683;DHT22;24897;53.514;10.482;2023-04-01T19:45:46;4.10;99.90
23683;DHT22;24897;53.514;10.482;2023-04-01T19:48:59;4.10;99.90
23683;DHT22;24897;53.514;10.482;2023-04-01T19:52:11;4.10;99.90
23683;DHT22;24897;53.514;10.482;2023-04-01T19:58:13;4.10;99.90
23683;DHT22;24897;53.514;10.482;2023-04-01T20:01:00;4.00;99.90
23683;DHT22;24897;53.514;10.482;2023-04-01T20:03:58;3.90;99.90
23683;DHT22;24897;53.514;10.482;2023-04-01T20:06:57;3.50;99.90
23683;DHT22;24897;53.514;10.482;2023-04-01T20:09:48;3.80;99.90
23683;DHT22;24897;53.514;10.482;2023-04-01T20:15:46;3.80;99.90
23683;DHT22;24897;53.514;10.482;2023-04-01T20:21:42;3.70;99.90
23683;DHT22;24897;53.514;10.482;2023-04-01T20:31:20;3.60;99.90
23683;DHT22;24897;53.514;10.482;2023-04-01T20:46:22;3.30;99.90
23683;DHT22;24897;53.514;10.482;2023-04-01T21:07:21;3.10;99.90
23683;DHT22;24897;53.514;10.482;2023-04-01T21:16:47;3.00;99.90
23683;DHT22;24897;53.514;10.482;2023-04-01T21:38:31;2.80;99.90
23683;DHT22;24897;53.514;10.482;2023-04-01T21:47:44;2.70;99.90
23683;DHT22;24897;53.514;10.482;2023-04-01T21:51:13;2.70;99.90
23683;DHT22;24897;53.514;10.482;2023-04-01T21:54:24;2.70;99.90
23683;DHT22;24897;53.514;10.482;2023-04-01T22:00:24;2.70;99.90
23683;DHT22;24897;53.514;10.482;2023-04-01T22:03:35;2.70;99.90
23683;DHT22;24897;53.514;10.482;2023-04-01T22:06:48;2.60;99.90
23683;DHT22;24897;53.514;10.482;2023-04-01T22:09:58;2.60;99.90
23683;DHT22;24897;53.514;10.482;2023-04-01T22:15:58;2.60;99.90
23683;DHT22;24897;53.514;10.482;2023-04-01T22:36:34;2.50;99.90
23683;DHT22;24897;53.514;10.482;2023-04-01T22:39:41;2.50;99.90
23683;DHT22;24897;53.514;10.482;2023-04-01T22:42:44;2.40;99.90
23683;DHT22;24897;53.514;10.482;2023-04-01T22:51:51;2.40;99.90
23683;DHT22;24897;53.514;10.482;2023-04-01T22:54:47;2.40;99.90
23683;DHT22;24897;53.514;10.482;2023-04-01T22:58:05;2.40;99.90
23683;DHT22;24897;53.514;10.482;2023-04-01T23:00:56;2.40;99.90
23683;DHT22;24897;53.514;10.482;2023-04-01T23:03:44;2.40;99.90
23683;DHT22;24897;53.514;10.482;2023-04-01T23:06:38;2.40;99.90
23683;DHT22;24897;53.514;10.482;2023-04-01T23:09:36;2.30;99.90
23683;DHT22;24897;53.514;10.482;2023-04-01T23:12:21;2.30;99.90
23683;DHT22;24897;53.514;10.482;2023-04-01T23:15:08;2.30;99.90
23683;DHT22;24897;53.514;10.482;2023-04-01T23:24:43;2.30;99.90
23683;DHT22;24897;53.514;10.482;2023-04-01T23:33:28;2.30;99.90
23683;DHT22;24897;53.514;10.482;2023-04-01T23:36:14;2.30;99.90
23683;DHT22;24897;53.514;10.482;2023-04-01T23:39:04;2.30;99.90
23683;DHT22;24897;53.514;10.482;2023-04-01T23:41:50;2.30;99.90
23683;DHT22;24897;53.514;10.482;2023-04-01T23:44:36;2.30;99.90
23683;DHT22;24897;53.514;10.482;2023-04-01T23:47:22;2.30;99.90
23683;DHT22;24897;53.514;10.482;2023-04-01T23:50:18;2.20;99.90
23683;DHT22;24897;53.514;10.482;2023-04-01T23:53:21;2.20;99.90
23683;DHT22;24897;53.514;10.482;2023-04-01T23:56:07;2.20;99.90
23683;DHT22;24897;53.514;10.482;2023-04-01T23:58:52;2.10;99.90
